createdAt,value
2019-03-02T00:00:22.636Z,7.10
2019-03-02T00:02:56.785Z,7.11
2019-03-02T00:05:25.801Z,7.17
2019-03-02T00:07:58.821Z,7.15
2019-03-02T00:10:28.987Z,7.14
2019-03-02T00:13:03.877Z,7.12
2019-03-02T00:15:35.845Z,7.10
2019-03-02T00:18:05.864Z,7.12
2019-03-02T00:20:36.148Z,7.09
2019-03-02T00:23:06.489Z,7.08
2019-03-02T00:25:36.622Z,7.10
2019-03-02T00:28:06.690Z,7.07
2019-03-02T00:30:36.623Z,7.08
2019-03-02T00:33:06.744Z,7.09
2019-03-02T00:35:39.793Z,7.04
2019-03-02T00:38:09.101Z,7.02
2019-03-02T00:40:40.758Z,7.02
2019-03-02T00:43:12.178Z,7.07
2019-03-02T00:45:45.959Z,7.09
2019-03-02T00:48:14.348Z,7.14
2019-03-02T00:50:44.237Z,7.17
2019-03-02T00:53:18.712Z,7.14
2019-03-02T00:55:48.576Z,7.17
2019-03-02T00:58:18.451Z,7.20
2019-03-02T01:00:49.942Z,7.26
2019-03-02T01:03:20.124Z,7.30
2019-03-02T01:05:50.124Z,7.29
2019-03-02T01:08:20.506Z,7.22
2019-03-02T01:10:51.300Z,7.20
2019-03-02T01:13:23.109Z,7.26
2019-03-02T01:15:53.519Z,7.27
2019-03-02T01:18:23.499Z,7.26
2019-03-02T01:20:53.506Z,7.26
2019-03-02T01:23:23.849Z,7.29
2019-03-02T01:25:55.210Z,7.32
2019-03-02T01:28:25.569Z,7.36
2019-03-02T01:30:56.037Z,7.39
2019-03-02T01:33:28.632Z,7.43
2019-03-02T01:35:58.171Z,7.37
2019-03-02T01:38:28.267Z,7.38
2019-03-02T01:41:02.392Z,7.37
2019-03-02T01:43:32.278Z,7.34
2019-03-02T01:46:04.605Z,7.37
2019-03-02T01:48:34.700Z,7.44
2019-03-02T01:51:04.688Z,7.21
2019-03-02T01:53:35.613Z,7.42
2019-03-02T01:56:06.077Z,7.26
2019-03-02T01:58:37.234Z,7.29
2019-03-02T02:01:07.506Z,7.35
2019-03-02T02:03:38.618Z,7.40
2019-03-02T02:06:09.187Z,7.42
2019-03-02T02:08:39.079Z,7.35
2019-03-02T02:11:09.620Z,7.35
2019-03-02T02:13:42.893Z,7.31
2019-03-02T02:16:12.677Z,7.26
2019-03-02T02:18:42.915Z,7.25
2019-03-02T02:21:13.025Z,7.24
2019-03-02T02:23:45.834Z,7.29
2019-03-02T02:26:15.088Z,7.35
2019-03-02T02:28:44.971Z,7.39
2019-03-02T02:31:17.606Z,7.35
2019-03-02T02:33:47.553Z,7.30
2019-03-02T02:36:20.277Z,7.28
2019-03-02T02:38:54.514Z,7.21
2019-03-02T02:41:23.178Z,7.10
2019-03-02T02:43:54.300Z,7.11
2019-03-02T02:46:27.527Z,7.08
2019-03-02T02:48:57.162Z,7.00
2019-03-02T02:51:27.130Z,6.95
2019-03-02T02:53:57.105Z,6.89
2019-03-02T02:56:28.122Z,6.85
2019-03-02T02:59:01.683Z,6.86
2019-03-02T03:01:33.602Z,6.83
2019-03-02T03:04:03.216Z,6.81
2019-03-02T03:06:34.546Z,6.77
2019-03-02T03:09:09.807Z,6.74
2019-03-02T03:11:43.600Z,6.75
2019-03-02T03:14:14.916Z,6.81
2019-03-02T03:16:42.825Z,6.87
2019-03-02T03:19:12.736Z,6.95
2019-03-02T03:21:42.601Z,7.00
2019-03-02T03:24:12.842Z,6.98
2019-03-02T03:26:42.743Z,6.98
2019-03-02T03:29:12.705Z,6.96
2019-03-02T03:31:42.580Z,6.94
2019-03-02T03:34:12.631Z,6.94
2019-03-02T03:36:42.873Z,6.89
2019-03-02T03:39:13.041Z,6.86
2019-03-02T03:41:44.741Z,6.86
2019-03-02T03:44:17.592Z,6.80
2019-03-02T03:46:47.073Z,6.78
2019-03-02T03:49:17.066Z,6.77
2019-03-02T03:51:47.105Z,6.75
2019-03-02T03:54:17.314Z,6.78
2019-03-02T03:56:47.131Z,6.81
2019-03-02T03:59:19.064Z,6.78
2019-03-02T04:01:52.095Z,6.78
2019-03-02T04:04:24.786Z,6.79
2019-03-02T04:06:52.128Z,6.78
2019-03-02T04:09:22.871Z,6.77
2019-03-02T04:11:53.034Z,6.80
2019-03-02T04:14:24.672Z,6.77
2019-03-02T04:16:55.657Z,6.87
2019-03-02T04:19:33.972Z,6.90
2019-03-02T04:22:06.429Z,6.92
2019-03-02T04:24:39.844Z,6.91
2019-03-02T04:27:11.055Z,6.86
2019-03-02T04:29:48.871Z,6.87
2019-03-02T04:32:14.395Z,6.91
2019-03-02T04:34:44.398Z,6.97
2019-03-02T04:37:14.279Z,6.49
2019-03-02T04:39:46.460Z,7.02
2019-03-02T04:42:16.596Z,7.01
2019-03-02T04:44:46.704Z,6.96
2019-03-02T04:47:17.312Z,6.97
2019-03-02T04:49:51.080Z,6.92
2019-03-02T04:52:18.992Z,6.94
2019-03-02T04:54:48.971Z,6.95
2019-03-02T04:57:21.710Z,7.02
2019-03-02T04:59:53.683Z,7.08
2019-03-02T05:02:23.494Z,7.05
2019-03-02T05:04:53.963Z,6.98
2019-03-02T05:07:26.741Z,6.92
2019-03-02T05:09:55.818Z,6.94
2019-03-02T05:12:27.122Z,7.00
2019-03-02T05:14:57.125Z,6.96
2019-03-02T05:17:27.019Z,6.97
2019-03-02T05:19:56.938Z,6.95
2019-03-02T05:22:27.245Z,6.88
2019-03-02T05:24:57.124Z,6.93
2019-03-02T05:27:28.825Z,6.91
2019-03-02T05:30:02.602Z,6.88
2019-03-02T05:32:32.806Z,6.80
2019-03-02T05:35:06.115Z,6.72
2019-03-02T05:37:39.266Z,6.78
2019-03-02T05:40:08.273Z,6.69
2019-03-02T05:42:38.294Z,6.77
2019-03-02T05:45:08.551Z,6.72
2019-03-02T05:47:38.874Z,6.74
2019-03-02T05:50:09.155Z,6.67
2019-03-02T05:52:39.019Z,6.66
2019-03-02T05:55:09.871Z,6.75
2019-03-02T05:57:40.687Z,6.84
2019-03-02T06:00:12.865Z,6.85
2019-03-02T06:02:43.157Z,6.90
2019-03-02T06:05:13.654Z,6.81
2019-03-02T06:07:43.582Z,6.76
2019-03-02T06:10:13.965Z,6.69
2019-03-02T06:12:44.167Z,6.72
2019-03-02T06:15:14.790Z,6.75
2019-03-02T06:17:45.213Z,6.76
2019-03-02T06:20:16.465Z,6.80
2019-03-02T06:22:46.946Z,6.77
2019-03-02T06:25:20.882Z,6.83
2019-03-02T06:27:49.040Z,6.84
2019-03-02T06:30:19.977Z,6.89
2019-03-02T06:32:54.173Z,6.51
2019-03-02T06:35:24.554Z,6.82
2019-03-02T06:37:57.962Z,6.63
2019-03-02T06:40:28.005Z,6.50
2019-03-02T06:42:58.193Z,6.59
2019-03-02T06:45:28.508Z,6.62
2019-03-02T06:47:58.424Z,6.63
2019-03-02T06:50:31.809Z,6.63
2019-03-02T06:53:01.483Z,6.62
2019-03-02T06:55:31.995Z,6.62
2019-03-02T06:58:03.017Z,6.71
2019-03-02T07:00:32.836Z,6.69
2019-03-02T07:03:06.763Z,6.61
2019-03-02T07:05:37.205Z,6.72
2019-03-02T07:08:07.379Z,6.79
2019-03-02T07:10:37.459Z,6.71
2019-03-02T07:13:08.584Z,6.69
2019-03-02T07:15:40.494Z,6.81
2019-03-02T07:18:16.773Z,6.83
2019-03-02T07:20:46.659Z,6.82
2019-03-02T07:23:17.225Z,6.81
2019-03-02T07:25:47.390Z,6.90
2019-03-02T07:28:17.515Z,6.96
2019-03-02T07:30:47.632Z,6.99
2019-03-02T07:33:17.986Z,7.06
2019-03-02T07:35:48.045Z,7.22
2019-03-02T07:38:20.379Z,7.29
2019-03-02T07:40:52.763Z,6.87
2019-03-02T07:43:24.082Z,7.42
2019-03-02T07:45:57.638Z,7.39
2019-03-02T07:48:29.168Z,7.28
2019-03-02T07:51:00.991Z,7.19
2019-03-02T07:53:31.749Z,7.15
2019-03-02T07:56:02.401Z,7.24
2019-03-02T07:58:32.938Z,7.19
2019-03-02T08:01:02.054Z,7.13
2019-03-02T08:03:34.389Z,7.20
2019-03-02T08:06:04.746Z,7.20
2019-03-02T08:08:34.847Z,7.23
2019-03-02T08:11:06.654Z,7.23
2019-03-02T08:13:37.756Z,7.33
2019-03-02T08:16:09.932Z,7.44
2019-03-02T08:18:40.141Z,7.57
2019-03-02T08:21:10.762Z,7.75
2019-03-02T08:23:41.044Z,7.77
2019-03-02T08:26:11.168Z,7.70
2019-03-02T08:28:42.111Z,7.57
2019-03-02T08:31:13.378Z,7.71
2019-03-02T08:33:46.164Z,7.95
2019-03-02T08:36:18.193Z,8.15
2019-03-02T08:38:48.220Z,8.15
2019-03-02T08:41:18.271Z,8.25
2019-03-02T08:43:48.624Z,8.25
2019-03-02T08:46:20.246Z,8.35
2019-03-02T08:48:50.710Z,8.44
2019-03-02T08:51:20.830Z,8.50
2019-03-02T08:53:51.684Z,8.55
2019-03-02T08:56:22.234Z,8.55
2019-03-02T08:58:57.991Z,8.55
2019-03-02T09:01:27.793Z,8.67
2019-03-02T09:03:59.951Z,8.78
2019-03-02T09:06:34.775Z,8.93
2019-03-02T09:09:06.906Z,9.18
2019-03-02T09:11:40.860Z,9.18
2019-03-02T09:14:13.558Z,9.33
2019-03-02T09:16:47.111Z,9.29
2019-03-02T09:19:20.896Z,9.48
2019-03-02T09:21:55.924Z,9.60
2019-03-02T09:24:28.044Z,9.61
2019-03-02T09:27:01.276Z,9.38
2019-03-02T09:29:32.936Z,9.44
2019-03-02T09:32:04.258Z,9.23
2019-03-02T09:34:37.060Z,8.57
2019-03-02T09:37:08.039Z,9.27
2019-03-02T09:39:38.563Z,9.38
2019-03-02T09:42:09.663Z,9.42
2019-03-02T09:44:40.962Z,9.57
2019-03-02T09:47:12.765Z,9.71
2019-03-02T09:49:44.553Z,9.68
2019-03-02T09:52:15.114Z,9.82
2019-03-02T09:54:44.240Z,9.77
2019-03-02T09:57:15.029Z,9.88
2019-03-02T09:59:46.503Z,9.86
2019-03-02T10:02:21.311Z,9.81
2019-03-02T10:04:54.115Z,9.84
2019-03-02T10:07:27.281Z,9.82
2019-03-02T10:09:58.987Z,9.62
2019-03-02T10:12:29.657Z,9.53
2019-03-02T10:15:02.305Z,9.52
2019-03-02T10:17:38.444Z,9.43
2019-03-02T10:20:10.709Z,9.36
2019-03-02T10:22:43.711Z,9.43
2019-03-02T10:25:19.881Z,8.94
2019-03-02T10:27:50.155Z,9.40
2019-03-02T10:30:21.942Z,9.39
2019-03-02T10:32:55.745Z,9.36
2019-03-02T10:35:25.432Z,9.51
2019-03-02T10:37:56.460Z,9.57
2019-03-02T10:40:28.330Z,9.21
2019-03-02T10:43:00.204Z,9.77
2019-03-02T10:45:33.762Z,9.87
2019-03-02T10:48:04.341Z,10.01
2019-03-02T10:50:34.782Z,10.03
2019-03-02T10:53:07.498Z,9.89
2019-03-02T10:55:38.034Z,9.89
2019-03-02T10:58:10.310Z,9.95
2019-03-02T11:00:41.675Z,10.07
2019-03-02T11:03:13.879Z,9.98
2019-03-02T11:06:04.417Z,10.03
2019-03-02T11:08:57.662Z,10.22
2019-03-02T11:11:43.711Z,10.41
2019-03-02T11:14:23.937Z,10.42
2019-03-02T11:17:12.038Z,10.39
2019-03-02T11:20:08.021Z,10.25
2019-03-02T11:23:05.456Z,9.93
2019-03-02T11:25:47.529Z,10.46
2019-03-02T11:28:32.555Z,10.62
2019-03-02T11:31:10.772Z,10.88
2019-03-02T11:34:12.491Z,11.15
2019-03-02T11:37:00.498Z,11.07
2019-03-02T11:39:50.003Z,11.08
2019-03-02T11:42:31.305Z,10.99
2019-03-02T11:45:07.212Z,10.83
2019-03-02T11:47:48.086Z,10.60
2019-03-02T11:50:46.964Z,10.34
2019-03-02T11:53:24.085Z,10.54
2019-03-02T11:56:27.940Z,10.72
2019-03-02T11:59:20.509Z,10.68
2019-03-02T12:02:19.728Z,10.26
2019-03-02T12:05:06.219Z,10.02
2019-03-02T12:07:56.332Z,10.18
2019-03-02T12:10:38.507Z,10.30
2019-03-02T12:13:36.866Z,10.06
2019-03-02T12:16:33.274Z,10.15
2019-03-02T12:19:30.540Z,10.05
2019-03-02T12:22:35.652Z,9.96
2019-03-02T12:25:35.199Z,10.00
2019-03-02T12:28:23.616Z,10.12
2019-03-02T12:31:13.371Z,10.18
2019-03-02T12:34:03.332Z,10.20
2019-03-02T12:36:49.088Z,10.25
2019-03-02T12:39:37.496Z,10.36
2019-03-02T12:42:31.557Z,10.14
2019-03-02T12:45:21.750Z,10.33
2019-03-02T12:48:21.286Z,10.53
2019-03-02T12:51:02.743Z,10.45
2019-03-02T12:54:07.659Z,10.14
2019-03-02T12:57:08.701Z,10.61
2019-03-02T13:00:03.341Z,10.76
2019-03-02T13:03:06.041Z,10.72
2019-03-02T13:06:06.263Z,10.60
2019-03-02T13:08:59.166Z,10.83
2019-03-02T13:11:57.139Z,10.79
2019-03-02T13:14:44.710Z,10.73
2019-03-02T13:17:38.548Z,10.56
2019-03-02T13:20:29.472Z,10.67
2019-03-02T13:23:06.717Z,10.50
2019-03-02T13:25:58.742Z,10.67
2019-03-02T13:28:37.055Z,10.63
2019-03-02T13:31:31.424Z,10.85
2019-03-02T13:34:20.096Z,10.86
2019-03-02T13:37:20.433Z,10.87
2019-03-02T13:40:17.185Z,11.08
2019-03-02T13:42:56.791Z,11.12
2019-03-02T13:45:46.081Z,11.06
2019-03-02T13:48:35.699Z,10.81
2019-03-02T13:51:30.174Z,10.74
2019-03-02T13:56:51.851Z,10.50
2019-03-02T13:59:30.995Z,10.09
2019-03-02T14:02:19.022Z,10.15
2019-03-02T14:05:20.469Z,10.30
2019-03-02T14:08:28.296Z,10.36
2019-03-02T14:11:19.281Z,10.50
2019-03-02T14:14:03.681Z,10.72
2019-03-02T14:17:01.867Z,10.78
2019-03-02T14:19:42.063Z,10.86
2019-03-02T14:22:26.987Z,10.81
2019-03-02T14:25:34.386Z,10.95
2019-03-02T14:28:13.356Z,11.15
2019-03-02T14:33:54.831Z,11.15
2019-03-02T14:36:44.520Z,11.18
2019-03-02T14:39:30.227Z,11.19
2019-03-02T14:42:28.238Z,11.27
2019-03-02T14:45:16.740Z,11.47
2019-03-02T14:48:13.657Z,11.44
2019-03-02T14:51:03.195Z,11.42
2019-03-02T14:53:51.867Z,11.34
2019-03-02T14:56:54.730Z,11.24
2019-03-02T14:59:55.263Z,11.27
2019-03-02T15:02:49.083Z,11.04
2019-03-02T15:05:37.818Z,10.94
2019-03-02T15:08:25.692Z,10.65
2019-03-02T15:11:15.130Z,10.71
2019-03-02T15:14:11.455Z,10.83
2019-03-02T15:16:53.938Z,10.91
2019-03-02T15:19:56.175Z,10.75
2019-03-02T15:22:47.773Z,10.04
2019-03-02T15:25:34.366Z,10.68
2019-03-02T15:28:29.244Z,10.68
2019-03-02T15:31:35.078Z,10.17
2019-03-02T15:34:21.962Z,10.60
2019-03-02T15:37:07.803Z,10.60
2019-03-02T15:40:05.138Z,10.64
2019-03-02T15:42:58.653Z,10.66
2019-03-02T15:45:38.266Z,10.74
2019-03-02T15:48:30.838Z,10.79
2019-03-02T15:51:39.719Z,10.82
2019-03-02T15:54:33.018Z,10.84
2019-03-02T15:57:21.568Z,10.82
2019-03-02T16:00:18.180Z,10.88
2019-03-02T16:02:59.051Z,10.74
2019-03-02T16:05:52.690Z,10.58
2019-03-02T16:08:48.890Z,10.72
2019-03-02T16:11:35.652Z,10.64
2019-03-02T16:14:20.806Z,10.69
2019-03-02T16:17:04.695Z,10.54
2019-03-02T16:19:41.406Z,10.54
2019-03-02T16:22:30.099Z,10.56
2019-03-02T16:25:09.540Z,10.55
2019-03-02T16:27:58.829Z,10.45
2019-03-02T16:30:39.235Z,10.37
2019-03-02T16:33:32.463Z,10.32
2019-03-02T16:36:18.731Z,10.26
2019-03-02T16:39:02.908Z,10.19
2019-03-02T16:41:56.775Z,10.15
2019-03-02T16:44:39.315Z,9.99
2019-03-02T16:47:31.063Z,9.83
2019-03-02T16:50:27.989Z,9.56
2019-03-02T16:53:16.052Z,9.66
2019-03-02T16:56:17.253Z,9.79
2019-03-02T16:59:38.171Z,9.80
2019-03-02T17:02:34.587Z,9.82
2019-03-02T17:09:18.089Z,9.84
2019-03-02T17:12:01.395Z,9.89
2019-03-02T17:14:57.317Z,9.95
2019-03-02T17:17:56.072Z,10.02
2019-03-02T17:20:39.127Z,9.93
2019-03-02T17:23:42.627Z,9.92
2019-03-02T17:26:37.030Z,9.95
2019-03-02T17:29:24.610Z,9.94
2019-03-02T17:32:17.861Z,9.90
2019-03-02T17:35:07.601Z,9.87
2019-03-02T17:38:02.633Z,9.93
2019-03-02T17:41:07.478Z,9.98
2019-03-02T17:43:57.225Z,9.95
2019-03-02T17:46:47.061Z,9.91
2019-03-02T17:49:28.794Z,9.86
2019-03-02T17:52:23.274Z,9.75
2019-03-02T17:55:04.999Z,9.63
2019-03-02T17:57:50.301Z,9.58
2019-03-02T18:00:48.916Z,9.50
2019-03-02T18:03:56.000Z,9.41
2019-03-02T18:06:42.711Z,9.32
2019-03-02T18:09:41.634Z,9.30
2019-03-02T18:12:30.424Z,8.78
2019-03-02T18:15:36.510Z,9.15
2019-03-02T18:18:17.493Z,9.04
2019-03-02T18:21:23.540Z,9.04
2019-03-02T18:25:17.596Z,9.00
2019-03-02T18:31:25.989Z,8.45
2019-03-02T18:34:11.928Z,9.02
2019-03-02T18:36:45.946Z,9.04
2019-03-02T18:39:46.319Z,9.08
2019-03-02T18:46:30.456Z,9.20
2019-03-02T18:49:15.347Z,9.20
2019-03-02T18:52:13.091Z,9.18
2019-03-02T18:54:45.136Z,9.20
2019-03-02T18:57:15.940Z,9.25
2019-03-02T18:59:47.557Z,9.25
2019-03-02T19:02:18.275Z,9.31
2019-03-02T19:04:49.868Z,9.33
2019-03-02T19:07:20.845Z,9.29
2019-03-02T19:09:51.650Z,9.28
2019-03-02T19:12:22.104Z,9.29
2019-03-02T19:14:53.784Z,9.39
2019-03-02T19:17:25.392Z,9.49
2019-03-02T19:19:55.593Z,9.50
2019-03-02T19:22:25.994Z,9.48
2019-03-02T19:24:56.175Z,9.55
2019-03-02T19:27:26.561Z,9.56
2019-03-02T19:29:56.884Z,9.64
2019-03-02T19:32:27.192Z,9.73
2019-03-02T19:34:59.449Z,9.75
2019-03-02T19:37:29.844Z,9.72
2019-03-02T19:40:00.352Z,9.60
2019-03-02T19:42:32.160Z,9.65
2019-03-02T19:45:10.288Z,9.69
2019-03-02T19:47:45.702Z,9.72
2019-03-02T19:50:18.708Z,9.70
2019-03-02T19:52:49.774Z,9.71
2019-03-02T19:55:20.333Z,9.70
2019-03-02T19:57:50.620Z,9.66
2019-03-02T20:00:26.629Z,9.67
2019-03-02T20:02:57.254Z,9.60
2019-03-02T20:05:28.613Z,9.52
2019-03-02T20:07:59.260Z,9.42
2019-03-02T20:10:30.054Z,9.42
2019-03-02T20:13:00.210Z,9.47
2019-03-02T20:15:31.102Z,9.51
2019-03-02T20:18:01.478Z,9.50
2019-03-02T20:20:49.187Z,9.50
2019-03-02T20:23:20.051Z,9.52
2019-03-02T20:25:51.004Z,9.62
2019-03-02T20:28:20.942Z,9.65
2019-03-02T20:30:51.490Z,9.68
2019-03-02T20:33:29.571Z,9.70
2019-03-02T20:35:59.570Z,9.78
2019-03-02T20:38:31.345Z,9.86
2019-03-02T20:41:03.190Z,9.82
2019-03-02T20:43:34.590Z,9.88
2019-03-02T20:46:06.696Z,10.02
2019-03-02T20:48:36.693Z,10.06
2019-03-02T20:51:07.035Z,10.10
2019-03-02T20:53:37.660Z,10.14
2019-03-02T20:56:08.028Z,9.91
2019-03-02T20:58:39.359Z,10.11
2019-03-02T21:01:10.323Z,10.11
2019-03-02T21:03:40.716Z,10.16
2019-03-02T21:06:11.105Z,10.21
2019-03-02T21:12:12.939Z,10.30
2019-03-02T21:14:42.881Z,10.15
2019-03-02T21:17:13.183Z,10.18
2019-03-02T21:19:43.923Z,10.18
2019-03-02T21:22:17.751Z,10.28
2019-03-02T21:24:48.433Z,10.38
2019-03-02T21:27:19.071Z,10.18
2019-03-02T21:29:49.991Z,10.34
2019-03-02T21:32:21.056Z,10.40
2019-03-02T21:34:51.556Z,10.45
2019-03-02T21:37:21.754Z,10.55
2019-03-02T21:39:54.118Z,10.56
2019-03-02T21:42:24.339Z,10.62
2019-03-02T21:46:01.954Z,10.51
2019-03-02T21:52:24.190Z,10.64
2019-03-02T21:54:57.954Z,9.95
2019-03-02T21:57:28.518Z,10.68
2019-03-02T21:59:58.578Z,10.72
2019-03-02T22:05:42.945Z,10.82
2019-03-02T22:08:24.467Z,10.78
2019-03-02T22:11:32.776Z,10.81
2019-03-02T22:14:17.440Z,10.71
2019-03-02T22:20:59.094Z,10.60
2019-03-02T22:26:47.027Z,10.79
2019-03-02T22:32:28.594Z,10.26
2019-03-02T22:34:59.345Z,10.78
2019-03-02T22:44:44.819Z,10.80
2019-03-02T22:47:22.114Z,10.81
2019-03-02T22:50:28.762Z,10.79
2019-03-02T22:53:11.621Z,10.79
2019-03-02T22:56:25.258Z,10.71
2019-03-02T22:59:16.194Z,10.76
2019-03-02T23:02:26.024Z,10.73
2019-03-02T23:05:29.100Z,10.07
2019-03-02T23:08:00.507Z,10.65
2019-03-02T23:10:31.193Z,10.59
2019-03-02T23:13:02.620Z,10.60
2019-03-02T23:15:33.011Z,10.52
2019-03-02T23:18:04.965Z,10.69
2019-03-02T23:20:35.161Z,10.76
2019-03-02T23:23:05.774Z,10.76
2019-03-02T23:25:36.162Z,10.80
2019-03-02T23:28:06.757Z,10.84
2019-03-02T23:30:37.587Z,10.79
2019-03-02T23:33:08.071Z,10.92
2019-03-02T23:35:40.555Z,11.02
2019-03-02T23:38:11.018Z,11.11
2019-03-02T23:40:41.700Z,11.19
2019-03-02T23:43:12.578Z,11.16
2019-03-02T23:45:43.599Z,11.01
2019-03-02T23:48:14.003Z,10.86
2019-03-02T23:50:44.768Z,10.93
2019-03-02T23:53:15.196Z,10.99
2019-03-02T23:55:45.751Z,11.10
2019-03-02T23:58:17.958Z,11.22
